createdAt,value
2019-06-07T00:01:39.792Z,17.15
2019-06-07T00:06:43.872Z,16.97
2019-06-07T00:11:47.827Z,17.00
2019-06-07T00:16:51.832Z,16.90
2019-06-07T00:27:01.655Z,16.63
2019-06-07T00:32:05.652Z,16.49
2019-06-07T00:37:11.150Z,16.37
2019-06-07T00:42:17.470Z,16.22
2019-06-07T00:47:25.005Z,15.98
2019-06-07T00:53:13.115Z,15.84
2019-06-07T00:57:32.571Z,15.52
2019-06-07T01:02:36.647Z,15.26
2019-06-07T01:07:40.677Z,15.18
2019-06-07T01:12:44.706Z,15.27
2019-06-07T01:18:32.981Z,15.13
2019-06-07T01:22:54.884Z,15.05
2019-06-07T01:27:59.223Z,15.07
2019-06-07T01:33:03.163Z,15.19
2019-06-07T01:38:07.104Z,14.97
2019-06-07T01:43:11.134Z,14.80
2019-06-07T01:48:17.665Z,14.88
2019-06-07T01:53:23.680Z,14.92
2019-06-07T01:58:29.124Z,14.80
2019-06-07T02:03:33.555Z,14.81
2019-06-07T02:08:37.792Z,14.90
2019-06-07T02:13:41.972Z,14.86
2019-06-07T02:19:01.097Z,14.89
2019-06-07T02:23:51.821Z,14.82
2019-06-07T02:28:55.829Z,14.75
2019-06-07T02:33:59.758Z,14.75
2019-06-07T02:39:05.554Z,14.74
2019-06-07T02:44:09.731Z,14.69
2019-06-07T02:49:13.755Z,14.61
2019-06-07T02:54:17.864Z,14.58
2019-06-07T02:59:47.104Z,14.61
2019-06-07T03:04:32.022Z,14.56
2019-06-07T03:09:37.113Z,14.52
2019-06-07T03:14:43.190Z,14.49
2019-06-07T03:19:49.315Z,14.52
2019-06-07T03:24:55.763Z,14.46
2019-06-07T03:29:59.699Z,14.44
2019-06-07T03:35:03.810Z,14.65
2019-06-07T03:40:08.183Z,15.07
2019-06-07T03:45:12.285Z,15.50
2019-06-07T03:50:16.342Z,16.00
2019-06-07T03:55:20.370Z,16.40
2019-06-07T04:00:24.456Z,17.25
2019-06-07T04:05:29.520Z,18.04
2019-06-07T04:10:55.824Z,18.78
2019-06-07T04:15:41.444Z,19.32
2019-06-07T04:20:45.512Z,19.85
2019-06-07T04:25:49.452Z,19.82
2019-06-07T04:30:53.390Z,19.12
2019-06-07T04:35:57.333Z,18.73
2019-06-07T04:41:02.646Z,18.46
2019-06-07T04:46:06.584Z,18.74
2019-06-07T04:51:12.783Z,20.62
2019-06-07T04:56:16.793Z,22.20
2019-06-07T05:01:27.434Z,23.52
2019-06-07T05:06:26.463Z,24.54
2019-06-07T05:11:31.997Z,25.80
2019-06-07T05:16:40.698Z,26.89
2019-06-07T05:22:02.079Z,26.89
2019-06-07T05:26:48.388Z,27.97
2019-06-07T05:31:53.183Z,28.73
2019-06-07T05:37:11.204Z,29.20
2019-06-07T05:42:02.973Z,29.71
2019-06-07T05:47:06.999Z,30.08
2019-06-07T05:52:11.234Z,29.28
2019-06-07T05:57:15.248Z,29.17
2019-06-07T06:02:24.537Z,29.15
2019-06-07T06:07:25.346Z,28.50
2019-06-07T06:12:35.312Z,27.02
2019-06-07T06:17:37.676Z,27.95
2019-06-07T06:22:44.723Z,27.95
2019-06-07T06:32:57.876Z,30.26
2019-06-07T06:37:59.563Z,30.26
2019-06-07T06:43:03.699Z,29.99
2019-06-07T06:48:07.847Z,30.39
2019-06-07T06:53:12.109Z,30.27
2019-06-07T06:58:16.128Z,29.13
2019-06-07T07:03:54.274Z,27.98
2019-06-07T07:08:27.142Z,27.98
2019-06-07T07:13:31.267Z,28.36
2019-06-07T07:18:35.335Z,29.38
2019-06-07T07:23:39.421Z,27.90
2019-06-07T07:28:45.684Z,27.19
2019-06-07T07:39:03.460Z,26.66
2019-06-07T07:44:06.632Z,26.80
2019-06-07T07:49:07.348Z,26.45
2019-06-07T07:54:14.515Z,27.00
2019-06-07T07:59:18.377Z,27.00
2019-06-07T08:04:39.855Z,26.57
2019-06-07T08:09:28.019Z,26.40
2019-06-07T08:14:32.259Z,26.33
2019-06-07T08:19:36.647Z,26.42
2019-06-07T08:24:40.669Z,26.51
2019-06-07T08:30:00.627Z,26.51
2019-06-07T08:34:53.387Z,26.70
2019-06-07T08:39:59.150Z,26.70
2019-06-07T08:45:05.477Z,26.45
2019-06-07T08:50:08.555Z,26.45
2019-06-07T08:55:13.809Z,26.15
2019-06-07T09:00:43.327Z,25.89
2019-06-07T09:05:25.110Z,25.89
2019-06-07T09:10:29.114Z,25.80
2019-06-07T09:15:33.394Z,25.99
2019-06-07T09:20:45.973Z,26.80
2019-06-07T09:26:01.291Z,26.40
2019-06-07T09:30:59.765Z,26.90
2019-06-07T09:36:07.903Z,26.68
2019-06-07T09:41:09.915Z,25.94
2019-06-07T09:46:16.086Z,26.27
2019-06-07T09:51:20.775Z,26.28
2019-06-07T09:56:25.037Z,25.96
2019-06-07T10:01:29.306Z,26.25
2019-06-07T10:06:33.297Z,26.25
2019-06-07T10:11:37.349Z,26.25
2019-06-07T10:16:46.490Z,25.99
2019-06-07T10:21:47.343Z,26.12
2019-06-07T10:26:51.466Z,26.71
2019-06-07T10:31:55.441Z,26.94
2019-06-07T10:37:03.005Z,26.80
2019-06-07T10:42:06.492Z,26.44
2019-06-07T10:47:12.303Z,26.66
2019-06-07T10:52:16.330Z,26.65
2019-06-07T10:57:20.550Z,26.25
2019-06-07T11:02:26.172Z,26.35
2019-06-07T11:07:30.184Z,26.43
2019-06-07T11:12:34.117Z,26.13
2019-06-07T11:17:38.224Z,26.39
2019-06-07T11:22:42.451Z,26.45
2019-06-07T11:27:46.936Z,26.67
2019-06-07T11:32:51.255Z,26.30
2019-06-07T11:37:55.253Z,26.60
2019-06-07T11:42:59.190Z,26.77
2019-06-07T11:48:03.460Z,26.48
2019-06-07T11:53:08.585Z,26.44
2019-06-07T11:58:16.484Z,26.69
2019-06-07T12:03:18.647Z,26.96
2019-06-07T12:08:22.648Z,26.94
2019-06-07T12:13:27.121Z,27.06
2019-06-07T12:18:31.133Z,27.07
2019-06-07T12:23:35.219Z,27.19
2019-06-07T12:28:39.176Z,27.17
2019-06-07T12:33:43.217Z,26.96
2019-06-07T12:38:47.154Z,27.34
2019-06-07T12:43:51.309Z,27.46
2019-06-07T12:48:55.242Z,27.35
2019-06-07T12:53:59.247Z,27.13
2019-06-07T12:59:03.311Z,27.18
2019-06-07T13:04:07.389Z,27.04
2019-06-07T13:09:11.337Z,27.49
2019-06-07T13:14:16.023Z,27.26
2019-06-07T13:19:20.135Z,27.01
2019-06-07T13:24:25.198Z,27.55
2019-06-07T13:29:31.969Z,27.74
2019-06-07T13:34:35.168Z,27.74
2019-06-07T13:39:39.587Z,27.47
2019-06-07T13:44:43.665Z,27.62
2019-06-07T13:49:47.628Z,27.69
2019-06-07T13:54:51.578Z,27.54
2019-06-07T13:59:55.578Z,27.71
2019-06-07T14:04:59.954Z,27.80
2019-06-07T14:10:04.275Z,28.01
2019-06-07T14:15:09.190Z,27.82
2019-06-07T14:20:13.808Z,27.81
2019-06-07T14:25:18.304Z,27.81
2019-06-07T14:30:24.046Z,27.74
2019-06-07T14:35:28.873Z,27.76
2019-06-07T14:40:34.073Z,27.88
2019-06-07T14:45:38.259Z,27.84
2019-06-07T14:50:42.389Z,27.60
2019-06-07T14:55:46.353Z,27.95
2019-06-07T15:00:50.380Z,27.85
2019-06-07T15:05:54.308Z,27.85
2019-06-07T15:10:58.333Z,27.95
2019-06-07T15:16:02.718Z,27.89
2019-06-07T15:21:06.738Z,27.89
2019-06-07T15:26:10.676Z,28.19
2019-06-07T15:31:14.956Z,28.25
2019-06-07T15:36:18.979Z,28.07
2019-06-07T15:41:23.260Z,28.16
2019-06-07T15:46:27.550Z,28.31
2019-06-07T15:51:32.419Z,28.31
2019-06-07T15:56:36.972Z,28.13
2019-06-07T16:01:42.073Z,28.31
2019-06-07T16:06:46.257Z,28.22
2019-06-07T16:11:50.508Z,28.34
2019-06-07T16:16:54.451Z,28.31
2019-06-07T16:21:58.666Z,28.46
2019-06-07T16:27:02.615Z,28.46
2019-06-07T16:32:06.623Z,28.16
2019-06-07T16:37:10.669Z,28.28
2019-06-07T16:42:14.679Z,28.28
2019-06-07T16:47:18.623Z,28.20
2019-06-07T16:52:22.580Z,28.11
2019-06-07T16:57:26.612Z,28.11
2019-06-07T17:02:30.549Z,28.31
2019-06-07T17:07:34.699Z,28.14
2019-06-07T17:12:40.417Z,28.26
2019-06-07T17:17:45.272Z,28.15
2019-06-07T17:22:49.836Z,28.00
2019-06-07T17:27:53.882Z,28.00
2019-06-07T17:32:59.635Z,28.04
2019-06-07T17:38:03.908Z,27.89
2019-06-07T17:43:08.333Z,28.07
2019-06-07T17:48:12.301Z,27.90
2019-06-07T17:53:16.323Z,27.85
2019-06-07T17:58:20.271Z,27.90
2019-06-07T18:03:24.289Z,27.82
2019-06-07T18:08:30.485Z,27.82
2019-06-07T18:13:34.415Z,27.70
2019-06-07T18:18:39.010Z,27.61
2019-06-07T18:23:43.338Z,27.49
2019-06-07T18:28:48.399Z,27.49
2019-06-07T18:33:53.009Z,27.33
2019-06-07T18:38:57.000Z,27.13
2019-06-07T18:44:01.572Z,27.12
2019-06-07T18:49:05.649Z,27.02
2019-06-07T18:54:09.864Z,26.86
2019-06-07T18:59:13.780Z,26.63
2019-06-07T19:04:17.704Z,26.75
2019-06-07T19:09:21.871Z,26.59
2019-06-07T19:14:36.565Z,26.42
2019-06-07T19:19:31.610Z,26.35
2019-06-07T19:24:35.711Z,26.35
2019-06-07T19:29:43.106Z,26.11
2019-06-07T19:34:47.124Z,26.11
2019-06-07T19:39:51.728Z,25.84
2019-06-07T19:45:09.823Z,25.49
2019-06-07T19:50:03.103Z,25.28
2019-06-07T19:55:09.955Z,25.09
2019-06-07T20:00:14.640Z,24.92
2019-06-07T20:05:19.032Z,24.76
2019-06-07T20:10:23.903Z,24.32
2019-06-07T20:15:29.575Z,24.00
2019-06-07T20:20:34.033Z,23.85
2019-06-07T20:25:38.045Z,23.76
2019-06-07T20:30:41.977Z,23.54
2019-06-07T20:35:45.925Z,23.28
2019-06-07T20:40:49.870Z,23.22
2019-06-07T20:45:54.195Z,23.14
2019-06-07T20:51:01.229Z,23.03
2019-06-07T20:56:06.806Z,22.83
2019-06-07T21:01:11.161Z,22.75
2019-06-07T21:06:15.229Z,22.66
2019-06-07T21:11:19.568Z,22.51
2019-06-07T21:16:23.510Z,22.46
2019-06-07T21:21:27.457Z,22.29
2019-06-07T21:26:31.651Z,22.18
2019-06-07T21:31:35.939Z,22.09
2019-06-07T21:36:39.945Z,22.38
2019-06-07T21:41:44.188Z,22.63
2019-06-07T21:46:48.128Z,22.40
2019-06-07T21:51:52.070Z,22.04
2019-06-07T21:56:56.410Z,21.28
2019-06-07T22:02:00.474Z,20.85
2019-06-07T22:07:05.302Z,20.61
2019-06-07T22:12:10.105Z,20.19
2019-06-07T22:17:14.546Z,19.64
2019-06-07T22:22:18.845Z,19.43
2019-06-07T22:27:23.161Z,19.33
2019-06-07T22:32:27.173Z,19.24
2019-06-07T22:37:31.096Z,19.11
2019-06-07T22:42:35.052Z,19.05
2019-06-07T22:47:39.056Z,18.94
2019-06-07T22:52:42.995Z,18.87
2019-06-07T22:57:56.189Z,18.96
2019-06-07T23:03:00.197Z,18.89
2019-06-07T23:08:04.326Z,18.67
2019-06-07T23:13:09.269Z,18.73
2019-06-07T23:18:13.490Z,18.67
2019-06-07T23:23:17.773Z,18.65
2019-06-07T23:28:22.040Z,18.57
2019-06-07T23:33:26.090Z,18.67
2019-06-07T23:38:30.024Z,18.81
2019-06-07T23:43:34.041Z,18.77
2019-06-07T23:48:37.980Z,18.75
2019-06-07T23:53:41.988Z,18.76
2019-06-07T23:58:46.189Z,18.71
